Clarion County Airport


Codes: KAXQ/
Name: Clarion County Airport
City: Clarion
Country: United States
Elevation: 1458 ft.

Photos at Clarion County Airport


   Photos courtesy of SpottingLog. You can add your own sightings and photos by signing up for a free trial today.



No photos found.

Weather at Clarion County Airport


Time (UTC)DescriptionTempratureWindCloud coverageVisibilityPressureHumidity
21-Jun-2024 15:00Light Rain26°C7 mph, SW11%10000m1024hPa77%
21-Jun-2024 18:00Clear Sky30°C7 mph, W7%10000m1022hPa56%
21-Jun-2024 21:00Broken Clouds32°C7 mph, W56%10000m1019hPa47%
22-Jun-2024 00:00Light Rain25°C4 mph, NW37%10000m1019hPa86%
22-Jun-2024 03:00Light Rain21°C2 mph, N8%10000m1020hPa93%
22-Jun-2024 06:00Light Rain21°C2 mph, N8%10000m1019hPa94%
22-Jun-2024 09:00Light Rain20°C2 mph, S1%10000m1019hPa96%
22-Jun-2024 12:00Clear Sky22°C2 mph, SW3%10000m1019hPa91%
22-Jun-2024 15:00Light Rain27°C7 mph, SW64%10000m1017hPa69%
22-Jun-2024 18:00Light Rain32°C11 mph, W43%10000m1015hPa43%
22-Jun-2024 21:00Few Clouds31°C11 mph, SW23%10000m1013hPa43%
23-Jun-2024 00:00Scattered Clouds26°C4 mph, SW33%10000m1012hPa76%
23-Jun-2024 03:00Overcast Clouds23°C4 mph, SW100%10000m1012hPa85%
23-Jun-2024 06:00Overcast Clouds21°C4 mph, S97%10000m1011hPa94%
23-Jun-2024 09:00Light Rain20°C7 mph, SW100%10000m1010hPa95%
23-Jun-2024 12:00Light Rain21°C9 mph, SW100%10000m1009hPa94%
23-Jun-2024 15:00Light Rain24°C13 mph, SW100%10000m1008hPa86%
23-Jun-2024 18:00Light Rain23°C13 mph, SW100%10000m1006hPa88%
23-Jun-2024 21:00Light Rain22°C11 mph, SW100%10000m1005hPa97%
24-Jun-2024 00:00Light Rain21°C11 mph, NW95%10000m1005hPa95%
24-Jun-2024 03:00Scattered Clouds17°C9 mph, NW49%10000m1007hPa96%
24-Jun-2024 06:00Scattered Clouds14°C4 mph, W27%10000m1008hPa98%
24-Jun-2024 09:00Few Clouds13°C7 mph, W24%10000m1008hPa98%
24-Jun-2024 12:00Few Clouds16°C7 mph, NW16%10000m1010hPa92%
24-Jun-2024 15:00Clear Sky22°C11 mph, NW10%10000m1011hPa52%
24-Jun-2024 18:00Clear Sky25°C9 mph, NW5%10000m1010hPa42%
24-Jun-2024 21:00Few Clouds26°C9 mph, NW14%10000m1010hPa43%
25-Jun-2024 00:00Clear Sky21°C4 mph, NW9%10000m1011hPa72%
25-Jun-2024 03:00Clear Sky16°C0 mph, N3%10000m1012hPa87%
25-Jun-2024 06:00Clear Sky15°C2 mph, S3%10000m1012hPa89%
25-Jun-2024 09:00Broken Clouds14°C2 mph, S54%10000m1012hPa94%
25-Jun-2024 12:00Broken Clouds19°C2 mph, SW53%10000m1013hPa81%
25-Jun-2024 15:00Overcast Clouds24°C7 mph, SW100%10000m1012hPa65%
25-Jun-2024 18:00Overcast Clouds27°C11 mph, SW100%10000m1010hPa61%
25-Jun-2024 21:00Overcast Clouds29°C9 mph, SW100%10000m1008hPa54%
26-Jun-2024 00:00Light Rain21°C9 mph, SW96%6658m1008hPa98%
26-Jun-2024 03:00Heavy Intensity Rain20°C4 mph, SW100%1315m1009hPa100%
26-Jun-2024 06:00Light Rain20°C9 mph, S100%10000m1007hPa99%
26-Jun-2024 09:00Light Rain19°C7 mph, S100%2769m1007hPa99%
26-Jun-2024 12:00Light Rain20°C9 mph, SW100%2607m1007hPa99%